Time;durP1;ratioP1;P1;durP2;ratioP2;P2;SDS_P1;SDS_P2;PMS_P1;PMS_P2;Temp;Humidity;BMP_temperature;BMP_pressure;BME280_temperature;BME280_humidity;BME280_pressure;Samples;Min_cycle;Max_cycle;Signal;HPM_P1;HPM_P2
2023/12/27 00:00:45;;;;;;;16.88;11.90;;;7.40;99.90;;;;;;4995391;28;20065;-71
2023/12/27 00:03:11;;;;;;;8.65;7.15;;;7.30;99.90;;;;;;4989205;28;20034;-70
2023/12/27 00:05:36;;;;;;;7.15;5.50;;;7.40;99.90;;;;;;4975751;28;20031;-70
2023/12/27 00:08:02;;;;;;;5.75;5.00;;;7.40;99.90;;;;;;4969219;28;20913;-71
2023/12/27 00:10:28;;;;;;;4.55;3.80;;;7.40;99.90;;;;;;4972061;28;20045;-70
2023/12/27 00:12:53;;;;;;;4.80;3.30;;;7.40;99.90;;;;;;4965409;28;20084;-70
2023/12/27 00:15:19;;;;;;;3.90;2.50;;;7.40;99.90;;;;;;4973066;28;20118;-70
2023/12/27 00:17:45;;;;;;;5.85;2.50;;;7.40;99.90;;;;;;4966671;28;20031;-70
2023/12/27 00:20:11;;;;;;;5.72;3.13;;;7.40;99.90;;;;;;4974515;28;20026;-70
2023/12/27 00:22:37;;;;;;;4.53;2.60;;;7.40;99.90;;;;;;4979153;28;20110;-70
2023/12/27 00:25:03;;;;;;;3.15;2.55;;;7.40;99.90;;;;;;4967961;28;20125;-70
2023/12/27 00:27:29;;;;;;;4.70;2.20;;;7.40;99.90;;;;;;4971662;28;20312;-69
2023/12/27 00:29:55;;;;;;;2.63;2.42;;;7.40;99.90;;;;;;4972341;28;20030;-70
2023/12/27 00:32:20;;;;;;;5.38;2.50;;;7.40;99.90;;;;;;4976797;28;20033;-70
2023/12/27 00:34:48;;;;;;;4.07;2.95;;;7.40;99.90;;;;;;4975521;28;20042;-70
2023/12/27 00:37:14;;;;;;;10.25;5.50;;;7.40;99.90;;;;;;4968853;28;20027;-70
2023/12/27 00:39:39;;;;;;;8.25;4.78;;;7.40;99.90;;;;;;4968739;28;20046;-70
2023/12/27 00:42:05;;;;;;;4.50;2.95;;;7.30;99.90;;;;;;4968837;28;20027;-70
2023/12/27 00:44:31;;;;;;;3.85;2.70;;;7.30;99.90;;;;;;4966990;28;20385;-70
2023/12/27 00:46:57;;;;;;;4.28;2.60;;;7.40;99.90;;;;;;4968188;28;20102;-70
2023/12/27 00:49:22;;;;;;;5.25;2.72;;;7.30;99.90;;;;;;4971441;28;20019;-70
2023/12/27 00:51:48;;;;;;;7.93;2.30;;;7.30;99.90;;;;;;4969988;28;20122;-70
2023/12/27 00:54:13;;;;;;;5.28;2.25;;;7.40;99.90;;;;;;4969141;28;20042;-70
2023/12/27 00:56:39;;;;;;;2.10;1.73;;;7.40;99.90;;;;;;4968151;28;20109;-69
2023/12/27 00:59:06;;;;;;;3.30;2.20;;;7.40;99.90;;;;;;4969491;28;20034;-70
2023/12/27 01:01:31;;;;;;;3.40;2.25;;;7.40;99.90;;;;;;4966363;28;20042;-71
2023/12/27 01:03:57;;;;;;;8.52;2.55;;;7.30;99.90;;;;;;4968866;28;20030;-70
2023/12/27 01:06:23;;;;;;;4.53;2.17;;;7.30;99.90;;;;;;4969573;28;20022;-70
2023/12/27 01:08:48;;;;;;;4.40;2.10;;;7.40;99.90;;;;;;4968902;28;20041;-70
2023/12/27 01:11:14;;;;;;;4.85;1.90;;;7.40;99.90;;;;;;4968384;28;20100;-70
2023/12/27 01:13:40;;;;;;;3.50;1.98;;;7.40;99.90;;;;;;4980553;28;20031;-71
2023/12/27 01:16:06;;;;;;;2.78;1.92;;;7.40;99.90;;;;;;4968184;28;20482;-70
2023/12/27 01:18:31;;;;;;;5.40;2.22;;;7.30;99.90;;;;;;4983308;28;20056;-71
2023/12/27 01:20:57;;;;;;;2.20;2.00;;;7.30;99.90;;;;;;4967939;28;20084;-70
2023/12/27 01:23:23;;;;;;;11.95;4.50;;;7.30;99.90;;;;;;4970309;28;20054;-70
2023/12/27 01:25:51;;;;;;;7.40;3.20;;;7.40;99.90;;;;;;4970325;28;20027;-71
2023/12/27 01:28:17;;;;;;;7.88;3.03;;;7.30;99.90;;;;;;4989049;28;20038;-70
2023/12/27 01:30:42;;;;;;;5.32;4.63;;;7.40;99.90;;;;;;4969415;28;20034;-71
2023/12/27 01:33:08;;;;;;;6.47;4.05;;;7.40;99.90;;;;;;4981403;28;20037;-69
2023/12/27 01:35:34;;;;;;;5.45;3.40;;;7.30;99.90;;;;;;4971538;28;20027;-69
2023/12/27 01:38:00;;;;;;;3.83;2.60;;;7.30;99.90;;;;;;4969920;28;20031;-69
2023/12/27 01:40:26;;;;;;;4.05;2.47;;;7.30;99.90;;;;;;4969250;28;20023;-71
2023/12/27 01:42:52;;;;;;;3.75;2.58;;;7.30;99.90;;;;;;4971521;28;20534;-71
2023/12/27 01:45:17;;;;;;;4.60;2.63;;;7.30;99.90;;;;;;4987036;28;20458;-71
2023/12/27 01:47:43;;;;;;;4.20;2.00;;;7.30;99.90;;;;;;4968810;28;20118;-70
2023/12/27 01:50:09;;;;;;;5.13;2.08;;;7.30;99.90;;;;;;4977327;28;20432;-70
2023/12/27 01:52:36;;;;;;;2.60;2.20;;;7.40;99.90;;;;;;4969577;28;20066;-71
2023/12/27 01:55:02;;;;;;;5.10;2.90;;;7.40;99.90;;;;;;4966805;28;20042;-70
2023/12/27 01:57:28;;;;;;;3.25;2.15;;;7.30;99.90;;;;;;4968103;28;20496;-70
2023/12/27 02:00:00;;;;;;;4.82;2.38;;;7.30;99.90;;;;;;4967980;28;20022;-71
2023/12/27 02:02:40;;;;;;;4.05;2.13;;;7.30;99.90;;;;;;4962645;28;20042;-71
2023/12/27 02:05:17;;;;;;;4.25;2.25;;;7.30;99.90;;;;;;4954898;28;20030;-71
2023/12/27 02:07:43;;;;;;;3.83;2.33;;;7.40;99.90;;;;;;4969019;28;20078;-71
2023/12/27 02:10:10;;;;;;;3.20;2.20;;;7.30;99.90;;;;;;4967564;28;20120;-69
2023/12/27 02:12:36;;;;;;;2.92;1.75;;;7.40;99.90;;;;;;4968046;28;20042;-70
2023/12/27 02:15:02;;;;;;;4.72;2.15;;;7.40;99.90;;;;;;4967442;28;20405;-70
2023/12/27 02:17:29;;;;;;;3.17;2.28;;;7.30;99.90;;;;;;4967833;28;20035;-70
2023/12/27 02:19:55;;;;;;;2.42;2.03;;;7.30;99.90;;;;;;4971938;28;20017;-70
2023/12/27 02:22:22;;;;;;;2.67;1.83;;;7.40;99.90;;;;;;4968308;28;20083;-71
2023/12/27 02:24:53;;;;;;;3.38;2.10;;;7.40;99.90;;;;;;4968742;28;20588;-71
2023/12/27 02:27:19;;;;;;;4.82;2.45;;;7.20;99.90;;;;;;4972779;28;20149;-69
2023/12/27 02:29:45;;;;;;;4.65;2.03;;;7.10;99.90;;;;;;4967576;28;20062;-70
2023/12/27 02:32:11;;;;;;;4.75;2.00;;;7.10;99.90;;;;;;4973324;28;20042;-71
2023/12/27 02:34:37;;;;;;;2.58;1.95;;;7.10;99.90;;;;;;4978900;28;20064;-70
2023/12/27 02:37:02;;;;;;;2.50;2.30;;;7.20;99.90;;;;;;4966477;28;20022;-70
2023/12/27 02:39:28;;;;;;;2.97;1.90;;;7.20;99.90;;;;;;4981880;28;20085;-70
2023/12/27 02:41:53;;;;;;;2.92;2.20;;;7.20;99.90;;;;;;4966516;28;20077;-69
2023/12/27 02:44:19;;;;;;;6.03;2.35;;;7.20;99.90;;;;;;4974256;28;20038;-70
2023/12/27 02:46:45;;;;;;;4.25;2.05;;;7.30;99.90;;;;;;4970822;28;20046;-70
2023/12/27 02:49:10;;;;;;;4.78;2.47;;;7.30;99.90;;;;;;5000060;28;20076;-71
2023/12/27 02:51:36;;;;;;;1.85;1.73;;;7.30;99.90;;;;;;4967592;28;20745;-71
2023/12/27 02:54:01;;;;;;;2.38;2.03;;;7.20;99.90;;;;;;4985656;28;20441;-70
2023/12/27 02:56:27;;;;;;;2.75;1.92;;;7.20;99.90;;;;;;4966520;28;20152;-70
2023/12/27 02:58:53;;;;;;;5.25;2.67;;;7.20;99.90;;;;;;4985212;28;20085;-70
2023/12/27 03:01:18;;;;;;;4.03;2.33;;;7.20;99.90;;;;;;4949676;28;20229;-70
2023/12/27 03:03:44;;;;;;;5.15;2.42;;;7.20;99.90;;;;;;4970677;28;20027;-71
2023/12/27 03:06:10;;;;;;;3.83;2.17;;;7.20;99.90;;;;;;4968807;28;20026;-71
2023/12/27 03:08:37;;;;;;;5.78;2.00;;;7.20;99.90;;;;;;4948502;28;20080;-71
2023/12/27 03:11:02;;;;;;;5.07;2.10;;;7.20;99.90;;;;;;4967790;28;20037;-71
2023/12/27 03:13:28;;;;;;;4.25;2.10;;;7.20;99.90;;;;;;4982760;28;20530;-70
2023/12/27 03:15:54;;;;;;;4.85;2.00;;;7.10;99.90;;;;;;4955632;28;20035;-70
2023/12/27 03:18:19;;;;;;;4.32;2.17;;;7.00;99.90;;;;;;4974829;28;20030;-72
2023/12/27 03:20:45;;;;;;;3.03;2.28;;;6.80;99.90;;;;;;4970774;28;20026;-71
2023/12/27 03:23:11;;;;;;;6.22;2.63;;;6.80;99.90;;;;;;4978306;28;20027;-72
2023/12/27 03:25:36;;;;;;;3.30;2.17;;;6.80;99.90;;;;;;4955685;28;20039;-70
2023/12/27 03:28:02;;;;;;;6.47;2.75;;;6.80;99.90;;;;;;4974850;28;20082;-70
2023/12/27 03:30:28;;;;;;;7.63;2.50;;;6.80;99.90;;;;;;4970653;28;20122;-70
2023/12/27 03:32:53;;;;;;;3.70;2.35;;;6.90;99.90;;;;;;4987329;28;20465;-70
2023/12/27 03:35:19;;;;;;;2.85;2.10;;;6.90;99.90;;;;;;4976663;28;20023;-72
2023/12/27 03:37:45;;;;;;;5.53;2.88;;;7.00;99.90;;;;;;4974478;28;20023;-71
2023/12/27 03:40:11;;;;;;;3.75;2.50;;;6.90;99.90;;;;;;4972472;28;20023;-74
2023/12/27 03:42:37;;;;;;;2.88;2.15;;;6.90;99.90;;;;;;4958180;28;20117;-74
2023/12/27 03:45:03;;;;;;;5.05;2.13;;;7.00;99.90;;;;;;5008169;28;20603;-73
2023/12/27 03:47:29;;;;;;;4.22;2.20;;;7.00;99.90;;;;;;4972009;28;20103;-71
2023/12/27 03:49:55;;;;;;;3.30;1.90;;;7.00;99.90;;;;;;4973469;28;20031;-70
2023/12/27 03:52:20;;;;;;;2.42;2.13;;;7.10;99.90;;;;;;4970940;28;20033;-71
2023/12/27 03:54:46;;;;;;;3.10;2.33;;;7.10;99.90;;;;;;4967397;28;20059;-70
2023/12/27 03:57:12;;;;;;;3.67;2.22;;;7.10;99.90;;;;;;4972559;28;20133;-71
2023/12/27 03:59:40;;;;;;;2.20;2.00;;;7.10;99.90;;;;;;4981148;28;20034;-71
2023/12/27 04:02:06;;;;;;;4.72;2.25;;;7.10;99.90;;;;;;4971263;28;20115;-71
2023/12/27 04:04:33;;;;;;;3.95;2.22;;;7.10;99.90;;;;;;4969479;28;20476;-71
2023/12/27 04:06:59;;;;;;;3.40;2.20;;;7.10;99.90;;;;;;4968479;28;20101;-70
2023/12/27 04:09:25;;;;;;;4.68;2.63;;;7.10;99.90;;;;;;4968438;28;20500;-70
2023/12/27 04:11:51;;;;;;;2.28;1.95;;;7.10;99.90;;;;;;4955164;28;20096;-71
2023/12/27 04:14:18;;;;;;;3.67;2.30;;;7.10;99.90;;;;;;4959204;28;20043;-70
2023/12/27 04:16:44;;;;;;;4.85;2.40;;;7.00;99.90;;;;;;4953538;28;20468;-70
2023/12/27 04:19:09;;;;;;;5.75;2.33;;;7.00;99.90;;;;;;4951563;28;20023;-69
2023/12/27 04:21:35;;;;;;;4.63;2.20;;;6.90;99.90;;;;;;4954834;28;20073;-70
2023/12/27 04:24:01;;;;;;;4.32;3.17;;;6.90;99.90;;;;;;4967690;28;20043;-72
2023/12/27 04:26:27;;;;;;;3.13;2.08;;;6.90;99.90;;;;;;4952273;28;20061;-71
2023/12/27 04:28:53;;;;;;;4.88;2.05;;;6.80;99.90;;;;;;4960971;28;20034;-72
2023/12/27 04:31:18;;;;;;;7.00;2.97;;;6.80;99.90;;;;;;4952095;28;20054;-70
2023/12/27 04:33:47;;;;;;;3.15;2.28;;;6.90;99.90;;;;;;4959116;28;20155;-70
2023/12/27 04:36:12;;;;;;;;;;;6.90;99.90;;;;;;4961114;28;20035;-70
2023/12/27 04:38:38;;;;;;;7.10;2.00;;;6.90;99.90;;;;;;4957362;28;19921;-70
2023/12/27 04:41:08;;;;;;;4.68;2.00;;;7.00;99.90;;;;;;4956478;28;20032;-70
2023/12/27 04:43:34;;;;;;;3.70;1.98;;;7.00;99.90;;;;;;4952678;28;20024;-70
2023/12/27 04:45:59;;;;;;;2.28;2.08;;;7.00;99.90;;;;;;4956803;28;20472;-70
2023/12/27 04:48:25;;;;;;;2.30;2.05;;;6.90;99.90;;;;;;4966354;28;20106;-69
2023/12/27 04:50:51;;;;;;;3.85;1.90;;;6.90;99.90;;;;;;4955437;28;20042;-70
2023/12/27 04:53:17;;;;;;;3.25;2.08;;;6.90;99.90;;;;;;4953095;28;20027;-71
2023/12/27 04:55:43;;;;;;;3.70;2.10;;;7.00;99.90;;;;;;4961466;28;20030;-70
2023/12/27 04:58:08;;;;;;;4.53;2.00;;;7.00;99.90;;;;;;4959768;28;20494;-70
2023/12/27 05:00:34;;;;;;;3.08;2.20;;;7.00;99.90;;;;;;4969631;28;20027;-70
2023/12/27 05:03:00;;;;;;;2.10;1.90;;;6.90;99.90;;;;;;4957698;28;20015;-70
2023/12/27 05:05:26;;;;;;;2.63;1.92;;;6.90;99.90;;;;;;4963277;28;20470;-71
2023/12/27 05:07:51;;;;;;;2.10;2.00;;;6.90;99.90;;;;;;4958121;28;20027;-70
2023/12/27 05:10:17;;;;;;;2.05;1.90;;;6.90;99.90;;;;;;4959804;28;20054;-69
2023/12/27 05:12:43;;;;;;;3.70;1.92;;;6.80;99.90;;;;;;4946664;28;20593;-70
2023/12/27 05:15:09;;;;;;;6.25;2.20;;;6.80;99.90;;;;;;4981662;28;20031;-70
2023/12/27 05:17:34;;;;;;;2.42;2.03;;;6.70;99.90;;;;;;4972385;28;20084;-70
2023/12/27 05:20:00;;;;;;;3.53;2.03;;;6.70;99.90;;;;;;4959495;28;20128;-70
2023/12/27 05:22:27;;;;;;;4.68;2.28;;;6.70;99.90;;;;;;4972013;28;20623;-71
2023/12/27 05:24:53;;;;;;;2.47;1.73;;;6.70;99.90;;;;;;4959806;28;20035;-71
2023/12/27 05:27:19;;;;;;;3.78;1.88;;;6.70;99.90;;;;;;4952834;28;20031;-71
2023/12/27 05:29:45;;;;;;;5.10;2.20;;;6.70;99.90;;;;;;4961245;28;20096;-71
2023/12/27 05:32:12;;;;;;;5.00;2.10;;;6.60;99.90;;;;;;4956897;28;20035;-70
2023/12/27 05:34:38;;;;;;;4.68;2.03;;;6.50;99.90;;;;;;4957918;28;20478;-71
2023/12/27 05:37:04;;;;;;;2.45;2.00;;;6.50;99.90;;;;;;4956245;28;20087;-71
2023/12/27 05:39:30;;;;;;;3.17;2.35;;;6.40;99.90;;;;;;4956743;28;20500;-69
2023/12/27 05:41:55;;;;;;;5.65;2.30;;;6.40;99.90;;;;;;4964289;28;20116;-71
2023/12/27 05:44:21;;;;;;;5.10;2.90;;;6.40;99.90;;;;;;4967297;28;20040;-70
2023/12/27 05:46:47;;;;;;;4.40;3.05;;;6.40;99.90;;;;;;4964927;28;20572;-71
2023/12/27 05:49:12;;;;;;;2.63;2.42;;;6.30;99.90;;;;;;4967487;28;20031;-71
2023/12/27 05:51:39;;;;;;;7.25;2.53;;;6.20;99.90;;;;;;4959722;28;20077;-71
2023/12/27 05:54:05;;;;;;;4.82;2.15;;;6.30;99.90;;;;;;4955089;28;20038;-71
2023/12/27 05:56:31;;;;;;;5.78;2.08;;;6.30;99.90;;;;;;4961469;28;20541;-71
2023/12/27 05:58:56;;;;;;;2.50;1.92;;;6.30;99.90;;;;;;4950722;28;20035;-73
2023/12/27 06:01:22;;;;;;;4.63;2.05;;;6.40;99.90;;;;;;4964937;28;20478;-71
2023/12/27 06:03:47;;;;;;;4.03;2.05;;;6.30;99.90;;;;;;4952630;28;20039;-71
2023/12/27 06:06:13;;;;;;;2.75;2.30;;;6.40;99.90;;;;;;4947210;28;20130;-70
2023/12/27 06:08:39;;;;;;;3.92;2.20;;;6.40;99.90;;;;;;4945467;28;20050;-70
2023/12/27 06:11:11;;;;;;;4.30;3.25;;;6.30;99.90;;;;;;4953668;28;20411;-71
2023/12/27 06:13:38;;;;;;;3.15;2.83;;;6.20;99.90;;;;;;4965781;28;20317;-71
2023/12/27 06:16:04;;;;;;;4.57;2.50;;;6.10;99.90;;;;;;4970209;28;20034;-70
2023/12/27 06:18:29;;;;;;;8.05;4.85;;;6.10;99.90;;;;;;4953350;28;20720;-70
2023/12/27 06:20:55;;;;;;;7.88;4.70;;;6.10;99.90;;;;;;4955088;28;20035;-70
2023/12/27 06:23:21;;;;;;;5.22;2.90;;;6.00;99.90;;;;;;4955288;28;20059;-70
2023/12/27 06:25:46;;;;;;;4.00;3.13;;;5.80;99.90;;;;;;4954012;28;20335;-70
2023/12/27 06:28:12;;;;;;;5.35;3.55;;;5.70;99.90;;;;;;4953659;28;20446;-70
2023/12/27 06:30:38;;;;;;;3.75;2.92;;;5.60;99.90;;;;;;4972348;28;20078;-71
2023/12/27 06:33:03;;;;;;;6.72;2.75;;;5.50;99.90;;;;;;4960544;28;20469;-70
2023/12/27 06:35:29;;;;;;;6.50;2.60;;;5.50;99.90;;;;;;4954822;28;20042;-71
2023/12/27 06:37:55;;;;;;;7.22;2.80;;;5.50;99.90;;;;;;4958613;28;20027;-71
2023/12/27 06:40:20;;;;;;;2.78;2.55;;;5.40;99.90;;;;;;4951641;28;20031;-71
2023/12/27 06:42:46;;;;;;;2.78;2.03;;;5.40;99.90;;;;;;4955397;28;20031;-69
2023/12/27 06:45:12;;;;;;;5.15;2.53;;;5.30;99.90;;;;;;4944837;28;20027;-70
2023/12/27 06:47:37;;;;;;;3.50;2.33;;;5.30;99.90;;;;;;4969864;28;20042;-70
2023/12/27 06:50:03;;;;;;;4.13;2.05;;;5.30;99.90;;;;;;4952103;28;20035;-70
2023/12/27 06:52:32;;;;;;;5.72;2.40;;;5.20;99.90;;;;;;4942837;28;20493;-70
2023/12/27 06:54:57;;;;;;;1.80;1.70;;;5.20;99.90;;;;;;4960394;28;20031;-71
2023/12/27 06:57:23;;;;;;;2.95;2.00;;;4.90;99.90;;;;;;4959640;28;20035;-70
2023/12/27 06:59:50;;;;;;;2.42;2.10;;;4.90;99.90;;;;;;4958714;28;20394;-70
2023/12/27 07:02:15;;;;;;;2.33;1.77;;;4.80;99.90;;;;;;4968096;28;20026;-72
2023/12/27 07:04:43;;;;;;;4.72;2.20;;;4.50;99.90;;;;;;4976439;28;20444;-70
2023/12/27 07:07:09;;;;;;;2.58;1.90;;;4.50;99.90;;;;;;4976181;28;20026;-70
2023/12/27 07:09:34;;;;;;;10.63;2.15;;;4.60;99.90;;;;;;4966475;28;20042;-74
2023/12/27 07:12:00;;;;;;;4.22;2.17;;;4.50;99.90;;;;;;5054424;28;20056;-70
2023/12/27 07:14:26;;;;;;;2.03;1.85;;;4.50;99.90;;;;;;5056750;28;20028;-71
2023/12/27 07:16:51;;;;;;;2.35;1.95;;;4.50;99.90;;;;;;5048229;28;20096;-70
2023/12/27 07:19:17;;;;;;;3.28;1.92;;;4.30;99.90;;;;;;4976929;28;20032;-70
2023/12/27 07:21:42;;;;;;;2.63;2.30;;;4.10;99.90;;;;;;5053924;28;20132;-70
2023/12/27 07:24:08;;;;;;;3.65;2.60;;;4.30;99.90;;;;;;5049269;28;20022;-71
2023/12/27 07:26:34;;;;;;;4.05;2.65;;;4.30;99.90;;;;;;5033284;28;20021;-70
2023/12/27 07:28:59;;;;;;;4.80;3.00;;;4.40;99.90;;;;;;5053630;28;20055;-70
2023/12/27 07:31:25;;;;;;;5.20;3.20;;;4.50;99.90;;;;;;5054153;28;20404;-71
2023/12/27 07:33:51;;;;;;;6.57;4.10;;;4.40;99.90;;;;;;4965479;28;20050;-70
2023/12/27 07:36:19;;;;;;;5.35;4.05;;;4.50;99.90;;;;;;5022644;28;20028;-70
2023/12/27 07:38:45;;;;;;;3.60;2.47;;;4.40;99.90;;;;;;5052735;28;20158;-71
2023/12/27 07:41:13;;;;;;;3.08;2.70;;;4.40;99.90;;;;;;5045397;28;20066;-72
2023/12/27 07:43:41;;;;;;;2.90;2.20;;;4.20;99.90;;;;;;5036327;28;20373;-72
2023/12/27 07:46:07;;;;;;;;;;;4.20;99.90;;;;;;5052974;28;20045;-71
2023/12/27 07:48:33;;;;;;;4.75;2.65;;;4.20;99.90;;;;;;5052677;28;20011;-71
2023/12/27 07:50:59;;;;;;;4.10;3.10;;;4.20;99.90;;;;;;5049403;28;20053;-71
2023/12/27 07:53:27;;;;;;;3.80;2.72;;;4.30;99.90;;;;;;5048647;28;20025;-72
2023/12/27 07:55:52;;;;;;;4.10;3.20;;;4.30;99.90;;;;;;5042159;28;20307;-72
2023/12/27 07:58:20;;;;;;;5.07;3.50;;;4.30;99.90;;;;;;4978178;28;20391;-74
2023/12/27 08:00:45;;;;;;;4.18;3.45;;;4.30;99.90;;;;;;5048958;28;20037;-71
2023/12/27 08:03:11;;;;;;;5.13;2.72;;;4.30;99.90;;;;;;5030609;28;20021;-70
2023/12/27 08:05:37;;;;;;;4.57;2.80;;;4.20;99.90;;;;;;5044761;28;20102;-71
2023/12/27 08:08:03;;;;;;;3.42;2.55;;;4.20;99.90;;;;;;5049097;28;20407;-71
2023/12/27 08:10:30;;;;;;;6.55;3.08;;;4.30;99.90;;;;;;5019303;28;20055;-72
2023/12/27 08:12:57;;;;;;;4.63;3.30;;;4.20;99.90;;;;;;4974271;28;20023;-70
2023/12/27 08:15:23;;;;;;;7.18;3.50;;;4.20;99.90;;;;;;4970527;28;20507;-71
2023/12/27 08:17:48;;;;;;;4.63;2.78;;;4.30;99.90;;;;;;4986420;28;20059;-71
2023/12/27 08:20:14;;;;;;;4.40;3.08;;;4.30;99.90;;;;;;4971320;28;20035;-70
2023/12/27 08:22:40;;;;;;;6.82;3.22;;;4.30;99.90;;;;;;4967565;28;20498;-70
2023/12/27 08:25:12;;;;;;;4.70;2.90;;;4.30;99.90;;;;;;4963897;28;20035;-71
2023/12/27 08:27:38;;;;;;;3.55;3.08;;;4.30;99.90;;;;;;4970769;28;20038;-71
2023/12/27 08:30:05;;;;;;;8.75;3.03;;;4.30;99.90;;;;;;4970673;28;20067;-71
2023/12/27 08:32:31;;;;;;;4.35;2.83;;;4.40;99.90;;;;;;4960987;28;20384;-71
2023/12/27 08:34:57;;;;;;;3.90;3.15;;;4.50;99.90;;;;;;4978940;28;20027;-70
2023/12/27 08:37:22;;;;;;;5.43;2.90;;;4.60;99.90;;;;;;4957696;28;20449;-71
2023/12/27 08:39:48;;;;;;;3.72;3.00;;;4.70;99.90;;;;;;4981811;28;20031;-70
2023/12/27 08:42:14;;;;;;;3.80;3.10;;;4.70;99.90;;;;;;5009459;28;20027;-71
2023/12/27 08:44:40;;;;;;;4.22;3.58;;;4.70;99.90;;;;;;4971270;28;20092;-71
2023/12/27 08:47:06;;;;;;;8.52;4.45;;;4.80;99.90;;;;;;4980930;28;20534;-71
2023/12/27 08:49:31;;;;;;;7.15;4.68;;;4.80;99.90;;;;;;4980496;28;20098;-71
2023/12/27 08:51:57;;;;;;;5.32;4.72;;;4.70;99.90;;;;;;4983866;28;20124;-73
2023/12/27 08:54:23;;;;;;;8.63;4.75;;;4.70;99.90;;;;;;4993006;28;20031;-70
2023/12/27 08:56:48;;;;;;;6.22;4.78;;;4.80;99.90;;;;;;4996793;28;20042;-72
2023/12/27 08:59:14;;;;;;;6.82;4.38;;;4.90;99.90;;;;;;4975348;28;20064;-70
2023/12/27 09:01:40;;;;;;;7.22;4.57;;;5.00;99.90;;;;;;4971511;28;20061;-70
2023/12/27 09:04:06;;;;;;;5.45;4.00;;;5.00;99.90;;;;;;4972152;28;20092;-71
2023/12/27 09:06:31;;;;;;;8.40;5.35;;;5.00;99.90;;;;;;4972693;28;20114;-70
2023/12/27 09:08:57;;;;;;;7.75;5.28;;;5.10;99.90;;;;;;4969220;28;20028;-70
2023/12/27 09:11:23;;;;;;;7.80;4.75;;;5.10;99.90;;;;;;4976158;28;20080;-70
2023/12/27 09:13:48;;;;;;;7.78;5.00;;;5.10;99.90;;;;;;4969531;28;20023;-71
2023/12/27 09:16:14;;;;;;;9.25;6.10;;;5.10;99.90;;;;;;4972805;28;20034;-71
2023/12/27 09:18:40;;;;;;;9.10;5.57;;;5.10;99.90;;;;;;4969890;28;20106;-71
2023/12/27 09:21:06;;;;;;;7.78;5.00;;;5.10;99.90;;;;;;4965330;28;20641;-70
2023/12/27 09:23:32;;;;;;;6.75;4.70;;;5.10;99.90;;;;;;4968949;28;20023;-70
2023/12/27 09:25:57;;;;;;;9.52;4.43;;;5.10;99.90;;;;;;4961923;28;20068;-71
2023/12/27 09:28:25;;;;;;;7.32;4.45;;;5.10;99.90;;;;;;4974744;28;20043;-70
2023/12/27 09:30:52;;;;;;;7.13;3.92;;;5.20;99.90;;;;;;4969527;28;20133;-71
2023/12/27 09:33:18;;;;;;;4.65;3.60;;;5.30;99.90;;;;;;4974969;28;20124;-73
2023/12/27 09:35:43;;;;;;;6.32;3.83;;;5.40;99.90;;;;;;4968270;28;20031;-71
2023/12/27 09:38:10;;;;;;;6.15;3.80;;;5.50;99.90;;;;;;4969485;28;20031;-71
2023/12/27 09:40:35;;;;;;;5.85;3.88;;;5.50;99.90;;;;;;4971362;28;20038;-73
2023/12/27 09:43:06;;;;;;;5.03;3.03;;;5.60;99.90;;;;;;4978516;28;20049;-71
2023/12/27 09:45:36;;;;;;;5.07;3.30;;;5.70;99.90;;;;;;4973752;28;20086;-71
2023/12/27 09:48:04;;;;;;;5.47;2.63;;;5.80;99.90;;;;;;4979478;28;20023;-71
2023/12/27 09:50:34;;;;;;;3.90;2.92;;;6.00;99.90;;;;;;4977952;28;20501;-72
2023/12/27 09:53:03;;;;;;;4.65;2.88;;;6.00;99.90;;;;;;4973131;28;20042;-71
2023/12/27 09:55:32;;;;;;;3.85;2.88;;;6.10;99.90;;;;;;4981856;28;20030;-74
2023/12/27 09:57:58;;;;;;;3.60;2.95;;;6.30;99.90;;;;;;4987417;28;20088;-72
2023/12/27 10:00:28;;;;;;;11.55;2.97;;;6.50;99.90;;;;;;4979010;28;20087;-71
2023/12/27 10:02:58;;;;;;;3.15;1.98;;;6.60;99.90;;;;;;4975441;28;20039;-72
2023/12/27 10:05:33;;;;;;;1.63;1.25;;;6.70;99.90;;;;;;4961508;28;20035;-70
2023/12/27 10:08:16;;;;;;;3.08;1.83;;;6.80;99.90;;;;;;4973560;28;20031;-70
2023/12/27 10:10:44;;;;;;;4.88;2.00;;;6.80;99.90;;;;;;4971297;28;20386;-72
2023/12/27 10:13:12;;;;;;;2.80;2.03;;;6.90;99.90;;;;;;4953555;28;20031;-71
2023/12/27 10:15:37;;;;;;;2.17;1.95;;;6.90;99.90;;;;;;4972014;28;20312;-72
2023/12/27 10:18:03;;;;;;;5.20;2.20;;;6.90;99.90;;;;;;4950937;28;20031;-71
2023/12/27 10:20:43;;;;;;;2.35;2.03;;;7.00;99.90;;;;;;4985845;28;20539;-73
2023/12/27 10:23:09;;;;;;;4.95;1.88;;;7.10;99.90;;;;;;4986435;28;20061;-72
2023/12/27 10:25:40;;;;;;;3.05;1.80;;;7.10;99.90;;;;;;4996733;28;20451;-70
2023/12/27 10:28:05;;;;;;;4.30;1.98;;;7.10;99.90;;;;;;4969323;28;20027;-73
2023/12/27 10:30:31;;;;;;;4.03;1.95;;;7.10;99.90;;;;;;4988495;28;20037;-71
2023/12/27 10:33:02;;;;;;;2.65;1.70;;;7.10;99.90;;;;;;4991695;28;20053;-70
2023/12/27 10:35:28;;;;;;;3.03;1.95;;;7.10;99.90;;;;;;4981997;28;20026;-71
2023/12/27 10:38:02;;;;;;;3.38;2.10;;;7.10;99.90;;;;;;5014064;28;20431;-73
2023/12/27 10:40:31;;;;;;;5.50;2.30;;;7.10;99.90;;;;;;4983272;28;20096;-73
2023/12/27 10:42:57;;;;;;;2.67;2.08;;;7.00;99.90;;;;;;4974994;28;20035;-69
2023/12/27 10:45:23;;;;;;;2.30;2.00;;;7.00;99.90;;;;;;4975836;28;20026;-70
2023/12/27 10:47:56;;;;;;;2.75;2.25;;;7.00;99.90;;;;;;4987521;28;20029;-73
2023/12/27 10:50:22;;;;;;;2.92;2.13;;;7.00;99.90;;;;;;4985812;28;20038;-71
2023/12/27 10:53:12;;;;;;;2.15;1.90;;;7.00;99.90;;;;;;4967337;28;20422;-71
2023/12/27 10:55:39;;;;;;;3.15;1.90;;;7.10;99.90;;;;;;4972383;28;20041;-70
2023/12/27 10:58:15;;;;;;;2.63;1.83;;;7.10;99.90;;;;;;4985170;28;20512;-71
2023/12/27 11:00:42;;;;;;;3.45;1.80;;;7.00;99.90;;;;;;4985335;28;20054;-71
2023/12/27 11:03:10;;;;;;;2.65;1.88;;;7.10;99.90;;;;;;4970313;28;20034;-72
2023/12/27 11:05:37;;;;;;;2.58;2.08;;;7.10;99.90;;;;;;4967833;28;20035;-71
2023/12/27 11:08:05;;;;;;;2.63;2.42;;;7.20;99.90;;;;;;4969695;28;20035;-71
2023/12/27 11:10:35;;;;;;;3.00;2.08;;;7.20;99.90;;;;;;4963133;28;20538;-71
2023/12/27 11:13:02;;;;;;;2.72;1.95;;;7.30;99.90;;;;;;4954599;28;20035;-71
2023/12/27 11:15:31;;;;;;;3.95;1.90;;;7.50;99.90;;;;;;4963847;28;20374;-73
2023/12/27 11:18:04;;;;;;;1.92;1.70;;;7.50;99.90;;;;;;4958040;28;20031;-71
2023/12/27 11:20:45;;;;;;;2.58;1.92;;;7.50;99.90;;;;;;4969555;28;20034;-73
2023/12/27 11:23:13;;;;;;;1.95;1.55;;;7.60;99.90;;;;;;4956434;28;20085;-73
2023/12/27 11:25:42;;;;;;;2.83;2.00;;;7.70;99.90;;;;;;4966026;28;20062;-71
2023/12/27 11:28:08;;;;;;;1.90;1.77;;;7.80;99.90;;;;;;4982710;28;20058;-71
2023/12/27 11:30:34;;;;;;;3.03;2.25;;;7.80;99.90;;;;;;4985257;28;20070;-73
2023/12/27 11:33:01;;;;;;;2.25;1.90;;;7.80;99.90;;;;;;4980571;28;20065;-71
2023/12/27 11:35:32;;;;;;;2.47;1.95;;;7.80;99.90;;;;;;4943258;28;20028;-72
2023/12/27 11:38:20;;;;;;;2.63;2.08;;;7.80;99.90;;;;;;4972941;28;20057;-70
2023/12/27 11:40:57;;;;;;;2.38;1.98;;;7.80;99.90;;;;;;4996117;28;20034;-71
2023/12/27 11:43:28;;;;;;;2.67;2.03;;;7.90;99.90;;;;;;4982825;28;20039;-70
2023/12/27 11:46:10;;;;;;;3.38;2.05;;;7.90;99.90;;;;;;4990085;28;20038;-71
2023/12/27 11:48:39;;;;;;;4.45;1.92;;;8.00;99.90;;;;;;5021541;28;20031;-71
2023/12/27 11:51:26;;;;;;;3.50;2.00;;;8.10;99.90;;;;;;4977226;28;20478;-71
2023/12/27 11:53:59;;;;;;;2.05;1.88;;;8.10;99.90;;;;;;4967426;28;20033;-70
2023/12/27 11:56:32;;;;;;;2.65;1.95;;;8.10;99.90;;;;;;4989639;28;20039;-71
2023/12/27 11:59:06;;;;;;;4.50;2.42;;;8.10;99.90;;;;;;4977470;28;20034;-69
2023/12/27 12:01:35;;;;;;;5.25;2.15;;;8.20;99.90;;;;;;4957065;28;20028;-70
2023/12/27 12:04:27;;;;;;;2.28;1.70;;;8.30;99.90;;;;;;4995442;28;20045;-70
2023/12/27 12:06:55;;;;;;;2.13;1.80;;;8.40;99.90;;;;;;4950972;28;20503;-72
2023/12/27 12:09:35;;;;;;;;;;;8.50;99.90;;;;;;4974290;28;20043;-71
2023/12/27 12:12:10;;;;;;;2.97;1.77;;;8.50;99.90;;;;;;4989318;28;19925;-70
2023/12/27 12:14:42;;;;;;;1.80;1.70;;;8.60;99.90;;;;;;5012725;28;20031;-70
2023/12/27 12:17:09;;;;;;;2.30;1.60;;;8.60;99.90;;;;;;4995036;28;20049;-70
2023/12/27 12:19:39;;;;;;;4.72;1.98;;;8.70;99.90;;;;;;4989784;28;20035;-71
2023/12/27 12:22:14;;;;;;;5.45;4.95;;;8.70;99.90;;;;;;4975690;28;20023;-70
2023/12/27 12:24:40;;;;;;;1.88;1.70;;;8.80;99.90;;;;;;4978920;28;20156;-69
2023/12/27 12:27:10;;;;;;;2.05;1.70;;;8.80;99.90;;;;;;4983270;28;20062;-71
2023/12/27 12:29:36;;;;;;;3.05;1.90;;;8.90;99.90;;;;;;5020554;28;20484;-70
2023/12/27 12:32:03;;;;;;;2.03;1.48;;;8.90;99.90;;;;;;4985546;28;20033;-70
2023/12/27 12:34:38;;;;;;;2.15;1.77;;;9.00;99.90;;;;;;4993338;28;20023;-71
2023/12/27 12:37:07;;;;;;;2.38;2.10;;;9.00;99.90;;;;;;4979277;28;20027;-70
2023/12/27 12:39:33;;;;;;;2.45;1.95;;;9.00;99.90;;;;;;5007059;28;20505;-73
2023/12/27 12:41:59;;;;;;;3.13;1.85;;;9.00;99.90;;;;;;4980576;28;20030;-71
2023/12/27 12:44:28;;;;;;;2.42;1.90;;;9.00;99.90;;;;;;4980696;28;20039;-70
2023/12/27 12:46:54;;;;;;;2.45;2.25;;;9.00;99.90;;;;;;4961712;28;20030;-72
2023/12/27 12:49:25;;;;;;;4.70;2.15;;;9.10;99.90;;;;;;4981883;28;20023;-70
2023/12/27 12:51:52;;;;;;;4.15;1.90;;;9.20;99.90;;;;;;5016465;28;20033;-70
2023/12/27 12:54:27;;;;;;;5.85;2.50;;;9.20;99.90;;;;;;4981882;28;20041;-70
2023/12/27 12:57:06;;;;;;;4.65;2.78;;;9.30;99.90;;;;;;4980400;28;20027;-69